createdAt,value
2019-04-27T00:00:38.190Z,6.08
2019-04-27T00:03:13.320Z,6.15
2019-04-27T00:05:46.844Z,5.17
2019-04-27T00:11:09.725Z,3.62
2019-04-27T00:13:40.677Z,4.53
2019-04-27T00:16:11.265Z,5.17
2019-04-27T00:18:43.369Z,5.10
2019-04-27T00:21:32.916Z,3.93
2019-04-27T00:24:03.446Z,5.05
2019-04-27T00:26:33.446Z,5.62
2019-04-27T00:29:03.802Z,6.75
2019-04-27T00:31:33.757Z,6.85
2019-04-27T00:34:03.599Z,4.40
2019-04-27T00:36:40.340Z,7.80
2019-04-27T00:39:13.939Z,4.83
2019-04-27T00:41:43.932Z,5.03
2019-04-27T00:44:13.498Z,6.78
2019-04-27T00:46:43.204Z,8.20
2019-04-27T00:49:13.766Z,6.85
2019-04-27T00:51:43.396Z,6.80
2019-04-27T00:54:13.601Z,6.10
2019-04-27T00:57:00.761Z,6.92
2019-04-27T00:59:47.376Z,6.22
2019-04-27T01:02:18.101Z,6.47
2019-04-27T01:04:47.148Z,6.55
2019-04-27T01:07:16.582Z,8.40
2019-04-27T01:09:46.245Z,9.03
2019-04-27T01:12:15.890Z,6.67
2019-04-27T01:14:45.241Z,7.08
2019-04-27T01:17:14.330Z,8.58
2019-04-27T01:19:43.302Z,10.50
2019-04-27T01:22:12.458Z,6.70
2019-04-27T01:24:41.407Z,8.33
2019-04-27T01:27:15.021Z,5.92
2019-04-27T01:32:13.860Z,5.83
2019-04-27T01:34:42.919Z,6.67
2019-04-27T01:37:11.932Z,7.53
2019-04-27T01:39:41.297Z,8.10
2019-04-27T01:42:10.689Z,8.13
2019-04-27T01:44:39.794Z,14.45
2019-04-27T01:47:10.048Z,8.20
2019-04-27T01:49:39.740Z,6.53
2019-04-27T01:52:09.675Z,9.35
2019-04-27T01:54:39.261Z,6.50
2019-04-27T01:57:10.309Z,6.65
2019-04-27T01:59:39.869Z,5.55
2019-04-27T02:02:13.328Z,5.83
2019-04-27T02:04:43.933Z,8.83
2019-04-27T02:07:12.947Z,6.72
2019-04-27T02:09:42.029Z,8.15
2019-04-27T02:12:12.359Z,5.22
2019-04-27T02:14:41.664Z,6.28
2019-04-27T02:17:10.603Z,5.35
2019-04-27T02:19:39.862Z,8.63
2019-04-27T02:22:08.815Z,6.90
2019-04-27T02:24:39.006Z,5.33
2019-04-27T02:27:09.014Z,9.83
2019-04-27T02:29:59.169Z,9.18
2019-04-27T02:32:30.026Z,7.53
2019-04-27T02:35:03.615Z,5.62
2019-04-27T02:37:32.635Z,7.50
2019-04-27T02:40:01.669Z,7.58
2019-04-27T02:42:32.423Z,6.85
2019-04-27T02:45:01.458Z,7.67
2019-04-27T02:47:30.508Z,8.10
2019-04-27T02:50:00.634Z,8.10
2019-04-27T02:52:31.535Z,10.18
2019-04-27T02:55:00.573Z,9.58
2019-04-27T02:57:30.380Z,9.68
2019-04-27T03:00:00.144Z,9.98
2019-04-27T03:02:33.953Z,7.15
2019-04-27T03:05:03.065Z,8.58
2019-04-27T03:07:32.034Z,7.30
2019-04-27T03:10:02.226Z,9.90
2019-04-27T03:12:33.557Z,8.33
2019-04-27T03:15:04.238Z,10.78
2019-04-27T03:17:34.867Z,7.25
2019-04-27T03:20:11.100Z,7.35
2019-04-27T03:22:42.054Z,8.35
2019-04-27T03:25:15.417Z,10.08
2019-04-27T03:27:45.890Z,10.48
2019-04-27T03:30:16.274Z,7.87
2019-04-27T03:32:45.879Z,10.78
2019-04-27T03:35:14.991Z,8.58
2019-04-27T03:37:44.955Z,8.55
2019-04-27T03:40:14.056Z,7.67
2019-04-27T03:42:45.176Z,12.30
2019-04-27T03:45:14.328Z,12.40
2019-04-27T03:47:43.357Z,13.83
2019-04-27T03:50:14.100Z,12.40
2019-04-27T03:52:50.914Z,9.70
2019-04-27T03:55:30.703Z,14.18
2019-04-27T03:58:21.422Z,13.25
2019-04-27T04:00:49.511Z,12.68
2019-04-27T04:03:20.365Z,14.65
2019-04-27T04:05:52.030Z,13.75
2019-04-27T04:08:20.794Z,14.38
2019-04-27T04:10:51.559Z,13.48
2019-04-27T04:13:22.640Z,12.85
2019-04-27T04:16:00.199Z,13.03
2019-04-27T04:18:31.773Z,15.85
2019-04-27T04:21:00.928Z,13.85
2019-04-27T04:23:30.178Z,17.73
2019-04-27T04:25:59.865Z,16.77
2019-04-27T04:28:29.688Z,12.45
2019-04-27T04:31:00.577Z,15.45
2019-04-27T04:33:30.382Z,11.63
2019-04-27T04:35:59.975Z,12.05
2019-04-27T04:38:30.501Z,16.67
2019-04-27T04:41:01.488Z,17.52
2019-04-27T04:43:32.451Z,17.32
2019-04-27T04:46:04.943Z,13.75
2019-04-27T04:48:33.834Z,17.70
2019-04-27T04:51:03.076Z,18.12
2019-04-27T04:53:32.140Z,20.20
2019-04-27T04:56:01.177Z,18.35
2019-04-27T04:58:30.235Z,19.17
2019-04-27T05:00:59.593Z,18.85
2019-04-27T05:03:30.226Z,16.62
2019-04-27T05:05:59.291Z,18.60
2019-04-27T05:08:31.088Z,14.75
2019-04-27T05:11:00.385Z,18.23
2019-04-27T05:13:29.486Z,14.95
2019-04-27T05:15:58.971Z,18.30
2019-04-27T05:18:29.333Z,17.82
2019-04-27T05:21:06.066Z,18.75
2019-04-27T05:23:35.059Z,16.95
2019-04-27T05:26:04.035Z,15.83
2019-04-27T05:28:33.006Z,14.53
2019-04-27T05:31:02.001Z,17.70
2019-04-27T05:33:31.303Z,14.13
2019-04-27T05:36:00.306Z,13.58
2019-04-27T05:38:29.537Z,13.32
2019-04-27T05:40:58.815Z,14.40
2019-04-27T05:43:33.354Z,15.38
2019-04-27T05:46:35.672Z,13.22
2019-04-27T05:49:07.138Z,13.72
2019-04-27T05:51:38.163Z,14.43
2019-04-27T05:54:09.026Z,13.90
2019-04-27T05:56:39.062Z,9.93
2019-04-27T05:59:09.267Z,10.55
2019-04-27T06:01:38.902Z,8.80
2019-04-27T06:04:09.042Z,11.75
2019-04-27T06:06:39.873Z,12.98
2019-04-27T06:09:09.472Z,10.48
2019-04-27T06:11:39.986Z,8.63
2019-04-27T06:14:09.823Z,8.98
2019-04-27T06:16:39.562Z,9.13
2019-04-27T06:19:09.674Z,8.38
2019-04-27T06:21:40.118Z,8.98
2019-04-27T06:24:09.514Z,11.68
2019-04-27T06:26:39.896Z,10.93
2019-04-27T06:29:09.558Z,10.75
2019-04-27T06:31:39.680Z,12.15
2019-04-27T06:34:09.845Z,11.15
2019-04-27T06:36:39.082Z,11.53
2019-04-27T06:39:09.809Z,11.85
2019-04-27T06:41:39.959Z,13.15
2019-04-27T06:44:11.455Z,12.35
2019-04-27T06:46:40.555Z,11.08
2019-04-27T06:49:11.039Z,10.28
2019-04-27T06:51:40.454Z,11.20
2019-04-27T06:54:09.526Z,13.43
2019-04-27T06:56:39.032Z,18.48
2019-04-27T06:59:08.742Z,18.37
2019-04-27T07:01:39.053Z,16.40
2019-04-27T07:04:10.496Z,20.50
2019-04-27T07:06:52.820Z,14.45
2019-04-27T07:09:09.769Z,14.60
2019-04-27T07:11:39.637Z,17.02
2019-04-27T07:14:11.223Z,16.25
2019-04-27T07:16:39.488Z,18.12
2019-04-27T07:19:09.450Z,20.00
2019-04-27T07:21:39.931Z,12.65
2019-04-27T07:24:09.320Z,15.88
2019-04-27T07:26:39.076Z,17.25
2019-04-27T07:29:09.637Z,21.02
2019-04-27T07:31:40.074Z,16.35
2019-04-27T07:34:09.493Z,18.52
2019-04-27T07:36:39.267Z,16.17
2019-04-27T07:39:10.967Z,18.00
2019-04-27T07:41:39.927Z,12.93
2019-04-27T07:44:13.442Z,17.52
2019-04-27T07:46:42.716Z,18.80
2019-04-27T07:49:11.688Z,16.77
2019-04-27T07:51:40.700Z,17.20
2019-04-27T07:54:09.728Z,19.05
2019-04-27T07:56:39.058Z,18.25
2019-04-27T07:59:09.086Z,20.57
2019-04-27T08:01:39.286Z,13.93
2019-04-27T08:04:09.042Z,16.17
2019-04-27T08:06:38.842Z,16.37
2019-04-27T08:09:09.384Z,20.23
2019-04-27T08:11:39.157Z,15.15
2019-04-27T08:14:08.844Z,18.85
2019-04-27T08:16:38.792Z,18.02
2019-04-27T08:19:09.918Z,18.32
2019-04-27T08:21:44.272Z,16.50
2019-04-27T08:24:11.221Z,22.65
2019-04-27T08:26:59.431Z,15.85
2019-04-27T08:29:36.280Z,17.90
2019-04-27T08:32:09.981Z,11.83
2019-04-27T08:37:09.313Z,11.38
2019-04-27T08:39:39.655Z,8.00
2019-04-27T08:42:11.797Z,8.68
2019-04-27T08:44:40.795Z,8.28
2019-04-27T08:47:09.820Z,7.15
2019-04-27T08:49:39.403Z,7.95
2019-04-27T08:52:09.370Z,8.25
2019-04-27T08:54:39.425Z,10.35
2019-04-27T08:57:09.745Z,10.25
2019-04-27T08:59:39.429Z,7.90
2019-04-27T09:02:08.885Z,13.55
2019-04-27T09:04:39.500Z,16.57
2019-04-27T09:07:26.708Z,13.98
2019-04-27T09:09:57.403Z,10.65
2019-04-27T09:12:44.350Z,15.00
2019-04-27T09:15:15.284Z,15.28
2019-04-27T09:17:45.893Z,14.43
2019-04-27T09:20:19.526Z,13.78
2019-04-27T09:22:49.285Z,15.48
2019-04-27T09:25:19.339Z,16.07
2019-04-27T09:27:49.260Z,14.35
2019-04-27T09:30:19.119Z,12.13
2019-04-27T09:32:48.245Z,15.00
2019-04-27T09:35:17.262Z,14.68
2019-04-27T09:37:46.228Z,14.83
2019-04-27T09:40:17.144Z,12.50
2019-04-27T09:42:46.450Z,10.70
2019-04-27T09:45:16.631Z,11.05
2019-04-27T09:47:46.819Z,11.68
2019-04-27T09:50:16.349Z,13.58
2019-04-27T09:52:45.964Z,14.78
2019-04-27T09:55:16.339Z,15.13
2019-04-27T09:57:46.504Z,15.58
2019-04-27T10:00:16.137Z,14.28
2019-04-27T10:02:46.617Z,14.10
2019-04-27T10:05:17.157Z,12.85
2019-04-27T10:07:47.684Z,15.18
2019-04-27T10:10:17.458Z,14.03
2019-04-27T10:12:46.674Z,13.93
2019-04-27T10:15:16.686Z,19.73
2019-04-27T10:17:45.770Z,14.85
2019-04-27T10:20:14.794Z,10.80
2019-04-27T10:22:43.908Z,12.15
2019-04-27T10:25:25.097Z,11.80
2019-04-27T10:27:59.941Z,12.55
2019-04-27T10:30:30.064Z,12.53
2019-04-27T10:32:59.024Z,12.00
2019-04-27T10:35:27.980Z,13.13
2019-04-27T10:37:57.017Z,9.70
2019-04-27T10:40:26.438Z,11.22
2019-04-27T10:42:56.061Z,14.13
2019-04-27T10:45:25.232Z,13.75
2019-04-27T10:47:56.085Z,13.80
2019-04-27T10:50:26.553Z,10.35
2019-04-27T10:52:58.813Z,11.95
2019-04-27T10:55:26.748Z,16.90
2019-04-27T10:57:55.809Z,12.10
2019-04-27T11:00:32.696Z,12.73
2019-04-27T11:03:01.662Z,15.13
2019-04-27T11:05:35.878Z,14.65
2019-04-27T11:08:06.605Z,13.78
2019-04-27T11:10:36.103Z,7.00
2019-04-27T11:13:06.238Z,9.38
2019-04-27T11:15:37.130Z,9.00
2019-04-27T11:18:06.495Z,9.53
2019-04-27T11:20:36.300Z,10.00
2019-04-27T11:23:09.423Z,12.98
2019-04-27T11:25:36.525Z,12.18
2019-04-27T11:28:05.890Z,10.55
2019-04-27T11:30:34.929Z,9.03
2019-04-27T11:33:06.119Z,5.92
2019-04-27T11:35:39.109Z,6.87
2019-04-27T11:38:08.192Z,4.83
2019-04-27T11:40:38.350Z,5.80
2019-04-27T11:43:07.714Z,9.08
2019-04-27T11:45:36.843Z,10.75
2019-04-27T11:48:06.077Z,8.08
2019-04-27T11:50:35.771Z,9.85
2019-04-27T11:53:06.194Z,7.53
2019-04-27T11:55:35.413Z,7.65
2019-04-27T11:58:04.436Z,12.35
2019-04-27T12:00:33.482Z,12.18
2019-04-27T12:03:02.558Z,12.03
2019-04-27T12:05:31.514Z,12.37
2019-04-27T12:08:00.548Z,12.68
2019-04-27T12:10:29.594Z,9.70
2019-04-27T12:12:58.817Z,9.15
2019-04-27T12:15:28.135Z,13.15
2019-04-27T12:17:57.169Z,13.88
2019-04-27T12:20:26.149Z,15.25
2019-04-27T12:22:55.193Z,12.25
2019-04-27T12:25:24.225Z,13.95
2019-04-27T12:27:54.837Z,10.82
2019-04-27T12:30:26.173Z,8.95
2019-04-27T12:32:55.833Z,9.63
2019-04-27T12:35:25.717Z,8.73
2019-04-27T12:37:56.034Z,7.65
2019-04-27T12:40:26.868Z,8.23
2019-04-27T12:42:56.194Z,12.95
2019-04-27T12:45:26.677Z,9.53
2019-04-27T12:47:56.693Z,17.75
2019-04-27T12:50:26.964Z,9.13
2019-04-27T12:53:03.774Z,14.28
2019-04-27T12:55:51.780Z,16.62
2019-04-27T12:58:28.421Z,14.45
2019-04-27T13:01:01.534Z,12.15
2019-04-27T13:03:30.631Z,15.38
2019-04-27T13:05:59.629Z,15.63
2019-04-27T13:08:28.608Z,16.65
2019-04-27T13:10:57.602Z,15.08
2019-04-27T13:13:26.769Z,16.07
2019-04-27T13:15:56.413Z,15.32
2019-04-27T13:18:25.966Z,19.23
2019-04-27T13:20:55.134Z,17.27
2019-04-27T13:23:24.202Z,16.23
2019-04-27T13:25:53.227Z,16.90
2019-04-27T13:28:22.198Z,19.52
2019-04-27T13:30:51.187Z,14.05
2019-04-27T13:33:20.144Z,20.08
2019-04-27T13:35:49.134Z,13.35
2019-04-27T13:38:18.278Z,15.40
2019-04-27T13:40:49.277Z,15.48
2019-04-27T13:43:29.078Z,14.90
2019-04-27T13:46:02.805Z,17.67
2019-04-27T13:51:37.759Z,20.77
2019-04-27T13:54:17.310Z,13.22
2019-04-27T13:56:37.897Z,15.58
2019-04-27T13:59:07.698Z,19.45
2019-04-27T14:01:37.048Z,18.40
2019-04-27T14:04:07.082Z,14.30
2019-04-27T14:06:36.448Z,12.18
2019-04-27T14:09:09.197Z,10.82
2019-04-27T14:11:39.338Z,17.65
2019-04-27T14:14:08.500Z,12.90
2019-04-27T14:16:39.209Z,15.13
2019-04-27T14:19:08.568Z,9.68
2019-04-27T14:21:38.876Z,13.40
2019-04-27T14:24:07.832Z,11.30
2019-04-27T14:26:38.445Z,14.78
2019-04-27T14:29:08.714Z,12.10
2019-04-27T14:31:39.617Z,18.50
2019-04-27T14:34:09.222Z,13.78
2019-04-27T14:36:40.490Z,20.27
2019-04-27T14:39:10.658Z,13.72
2019-04-27T14:41:40.642Z,11.22
2019-04-27T14:44:10.668Z,17.15
2019-04-27T14:46:40.156Z,14.55
2019-04-27T14:49:09.196Z,11.63
2019-04-27T14:51:39.839Z,15.15
2019-04-27T14:54:09.330Z,14.00
2019-04-27T14:56:38.749Z,16.27
2019-04-27T14:59:08.165Z,17.95
2019-04-27T15:01:38.161Z,16.42
2019-04-27T15:04:07.883Z,14.58
2019-04-27T15:06:37.186Z,16.37
2019-04-27T15:09:07.673Z,23.65
2019-04-27T15:11:36.732Z,16.93
2019-04-27T15:14:05.968Z,18.92
2019-04-27T15:16:37.960Z,17.30
2019-04-27T15:19:07.359Z,14.53
2019-04-27T15:21:38.886Z,17.80
2019-04-27T15:24:10.029Z,16.23
2019-04-27T15:26:38.097Z,9.10
2019-04-27T15:29:08.208Z,12.93
2019-04-27T15:31:40.666Z,11.83
2019-04-27T15:34:11.279Z,11.78
2019-04-27T15:36:52.851Z,15.50
2019-04-27T15:39:26.941Z,16.60
2019-04-27T15:42:08.223Z,19.95
2019-04-27T15:44:36.471Z,21.12
2019-04-27T15:47:08.527Z,15.90
2019-04-27T15:49:36.545Z,16.10
2019-04-27T15:52:08.951Z,23.15
2019-04-27T15:54:38.021Z,16.00
2019-04-27T15:57:10.549Z,22.07
2019-04-27T15:59:40.817Z,18.95
2019-04-27T16:02:11.773Z,19.90
2019-04-27T16:04:40.093Z,21.42
2019-04-27T16:07:09.947Z,22.58
2019-04-27T16:09:38.990Z,14.38
2019-04-27T16:12:12.599Z,18.50
2019-04-27T16:14:40.944Z,15.72
2019-04-27T16:17:11.420Z,18.55
2019-04-27T16:19:46.794Z,16.50
2019-04-27T16:22:10.987Z,19.75
2019-04-27T16:24:39.956Z,19.23
2019-04-27T16:27:09.029Z,20.57
2019-04-27T16:29:38.986Z,20.48
2019-04-27T16:32:11.346Z,21.97
2019-04-27T16:34:41.338Z,18.85
2019-04-27T16:37:14.033Z,23.05
2019-04-27T16:39:45.778Z,18.50
2019-04-27T16:42:14.230Z,20.70
2019-04-27T16:44:48.252Z,23.87
2019-04-27T16:47:18.854Z,20.35
2019-04-27T16:49:48.310Z,21.30
2019-04-27T16:52:17.403Z,19.50
2019-04-27T16:54:49.820Z,18.07
2019-04-27T16:57:18.435Z,22.35
2019-04-27T17:02:23.733Z,24.20
2019-04-27T17:04:52.804Z,23.42
2019-04-27T17:07:19.880Z,22.40
2019-04-27T17:09:49.490Z,22.70
2019-04-27T17:12:23.782Z,24.12
2019-04-27T17:12:40.261Z,22.52
2019-04-27T17:15:05.932Z,21.05
2019-04-27T17:17:42.495Z,21.60
2019-04-27T17:20:12.988Z,15.83
2019-04-27T17:22:40.461Z,17.80
2019-04-27T17:25:09.759Z,20.72
2019-04-27T17:27:43.102Z,22.30
2019-04-27T17:30:12.724Z,18.95
2019-04-27T17:32:48.720Z,19.52
2019-04-27T17:35:18.388Z,23.67
2019-04-27T17:37:48.882Z,21.00
2019-04-27T17:40:18.495Z,16.30
2019-04-27T17:42:48.149Z,19.73
2019-04-27T17:45:19.387Z,16.85
2019-04-27T17:47:48.288Z,20.62
2019-04-27T17:50:24.834Z,22.67
2019-04-27T17:52:54.917Z,19.05
2019-04-27T17:55:24.123Z,19.12
2019-04-27T17:57:50.144Z,13.93
2019-04-27T18:00:20.029Z,15.88
2019-04-27T18:02:48.997Z,21.05
2019-04-27T18:05:18.107Z,16.85
2019-04-27T18:07:48.653Z,23.62
2019-04-27T18:10:23.844Z,22.55
2019-04-27T18:12:50.162Z,17.40
2019-04-27T18:15:19.879Z,19.37
2019-04-27T18:17:52.229Z,22.05
2019-04-27T18:20:25.829Z,15.80
2019-04-27T18:22:58.944Z,15.32
2019-04-27T18:25:28.658Z,14.75
2019-04-27T18:28:15.123Z,16.40
2019-04-27T18:30:59.066Z,21.05
2019-04-27T18:33:32.582Z,15.13
2019-04-27T18:36:05.215Z,18.00
2019-04-27T18:38:30.749Z,18.55
2019-04-27T18:41:03.020Z,21.05
2019-04-27T18:43:31.549Z,21.52
2019-04-27T18:46:00.603Z,17.60
2019-04-27T18:48:31.268Z,18.25
2019-04-27T18:51:01.889Z,17.45
2019-04-27T18:53:32.689Z,18.55
2019-04-27T18:56:05.281Z,20.95
2019-04-27T18:58:32.358Z,25.97
2019-04-27T19:01:01.694Z,18.10
2019-04-27T19:03:31.728Z,23.02
2019-04-27T19:06:01.019Z,22.82
2019-04-27T19:08:29.983Z,18.60
2019-04-27T19:11:00.385Z,18.92
2019-04-27T19:13:29.622Z,18.23
2019-04-27T19:15:59.881Z,20.57
2019-04-27T19:18:29.046Z,18.67
2019-04-27T19:20:58.530Z,16.52
2019-04-27T19:23:28.466Z,19.70
2019-04-27T19:25:59.192Z,21.77
2019-04-27T19:28:41.634Z,19.25
2019-04-27T19:31:18.884Z,19.77
2019-04-27T19:33:48.497Z,22.80
2019-04-27T19:36:19.105Z,16.70
2019-04-27T19:38:49.790Z,25.08
2019-04-27T19:41:18.875Z,24.25
2019-04-27T19:43:48.833Z,23.47
2019-04-27T19:46:20.067Z,19.07
2019-04-27T19:48:49.952Z,22.25
2019-04-27T19:51:19.216Z,17.98
2019-04-27T19:53:48.229Z,19.90
2019-04-27T19:56:21.380Z,18.83
2019-04-27T19:58:52.025Z,24.23
2019-04-27T20:01:28.675Z,25.17
2019-04-27T20:03:59.799Z,24.40
2019-04-27T20:06:29.149Z,20.90
2019-04-27T20:09:02.917Z,21.77
2019-04-27T20:11:31.898Z,25.90
2019-04-27T20:14:00.994Z,16.07
2019-04-27T20:16:31.737Z,23.05
2019-04-27T20:19:01.499Z,19.95
2019-04-27T20:21:30.939Z,22.75
2019-04-27T20:24:01.613Z,26.57
2019-04-27T20:26:31.167Z,24.92
2019-04-27T20:29:01.520Z,22.80
2019-04-27T20:31:32.527Z,23.83
2019-04-27T20:34:01.630Z,22.05
2019-04-27T20:36:31.342Z,22.90
2019-04-27T20:39:01.274Z,22.60
2019-04-27T20:41:31.891Z,31.10
2019-04-27T20:44:02.380Z,24.37
2019-04-27T20:46:31.760Z,18.35
2019-04-27T20:49:02.654Z,18.55
2019-04-27T20:51:52.566Z,23.67
2019-04-27T20:54:22.313Z,22.48
2019-04-27T20:56:53.519Z,23.47
2019-04-27T20:59:22.222Z,22.80
2019-04-27T21:01:51.337Z,25.32
2019-04-27T21:04:21.980Z,21.68
2019-04-27T21:07:01.456Z,26.33
2019-04-27T21:09:32.250Z,23.85
2019-04-27T21:12:01.070Z,29.55
2019-04-27T21:14:31.672Z,22.17
2019-04-27T21:17:01.742Z,24.10
2019-04-27T21:19:31.336Z,22.13
2019-04-27T21:22:01.236Z,23.90
2019-04-27T21:24:31.243Z,23.75
2019-04-27T21:27:00.559Z,17.00
2019-04-27T21:29:31.182Z,21.75
2019-04-27T21:32:01.026Z,23.75
2019-04-27T21:34:31.051Z,23.85
2019-04-27T21:37:01.075Z,24.77
2019-04-27T21:39:31.917Z,24.85
2019-04-27T21:42:01.243Z,23.35
2019-04-27T21:44:31.889Z,25.52
2019-04-27T21:47:01.039Z,26.48
2019-04-27T21:49:31.425Z,25.10
2019-04-27T21:52:08.217Z,22.02
2019-04-27T21:54:38.874Z,21.57
2019-04-27T21:57:07.909Z,21.17
2019-04-27T21:59:36.883Z,21.75
2019-04-27T22:02:07.701Z,23.95
2019-04-27T22:04:37.446Z,32.65
2019-04-27T22:07:06.520Z,24.67
2019-04-27T22:09:35.471Z,24.00
2019-04-27T22:12:04.752Z,23.95
2019-04-27T22:14:33.747Z,29.18
2019-04-27T22:17:02.787Z,19.30
2019-04-27T22:19:31.953Z,21.50
2019-04-27T22:22:02.619Z,21.52
2019-04-27T22:24:33.518Z,23.00
2019-04-27T22:27:02.478Z,25.88
2019-04-27T22:29:32.202Z,26.93
2019-04-27T22:32:01.766Z,25.32
2019-04-27T22:34:31.294Z,22.93
2019-04-27T22:37:00.949Z,30.88
2019-04-27T22:39:35.530Z,25.45
2019-04-27T22:44:45.453Z,24.37
2019-04-27T22:47:14.442Z,22.02
2019-04-27T22:49:43.464Z,26.33
2019-04-27T22:52:12.417Z,23.55
2019-04-27T22:54:42.110Z,21.65
2019-04-27T22:57:13.105Z,27.80
2019-04-27T22:59:43.714Z,27.80
2019-04-27T23:02:14.730Z,23.75
2019-04-27T23:04:45.327Z,21.85
2019-04-27T23:07:14.382Z,25.12
2019-04-27T23:09:43.420Z,23.27
2019-04-27T23:12:12.781Z,22.82
2019-04-27T23:14:41.752Z,21.02
2019-04-27T23:17:28.772Z,23.47
2019-04-27T23:19:57.811Z,22.85
2019-04-27T23:22:26.917Z,23.62
2019-04-27T23:24:55.979Z,20.85
2019-04-27T23:27:24.995Z,23.77
2019-04-27T23:29:54.474Z,28.57
2019-04-27T23:32:28.187Z,22.32
2019-04-27T23:37:25.266Z,25.40
2019-04-27T23:39:54.535Z,25.48
2019-04-27T23:42:23.807Z,26.95
2019-04-27T23:44:52.757Z,25.77
2019-04-27T23:47:21.725Z,21.57
2019-04-27T23:49:50.913Z,20.77
2019-04-27T23:52:37.984Z,23.95
2019-04-27T23:55:06.975Z,21.27
2019-04-27T23:57:35.932Z,22.70
